Time;durP1;ratioP1;P1;durP2;ratioP2;P2;SDS_P1;SDS_P2;PMS_P1;PMS_P2;Temp;Humidity;BMP_temperature;BMP_pressure;BME280_temperature;BME280_humidity;BME280_pressure;Samples;Min_cycle;Max_cycle;Signal;HPM_P1;HPM_P2
2021/12/20 00:11:41;;;;;;;0.20;0.20;;;7.60;96.20;6.30;102677.00;;;;31447914;28;20048;-72
2021/12/20 00:26:43;;;;;;;0.20;0.20;;;7.50;96.60;6.20;102648.00;;;;31460065;28;20466;-72
2021/12/20 00:41:45;;;;;;;0.20;0.20;;;7.40;96.10;6.20;102652.00;;;;31409369;28;20044;-72
2021/12/20 00:56:46;;;;;;;0.20;0.20;;;7.30;96.40;6.10;102655.00;;;;31443786;28;20044;-73
2021/12/20 01:11:51;;;;;;;0.20;0.20;;;7.20;95.90;6.00;102655.00;;;;31441194;28;20665;-73
2021/12/20 01:27:48;;;;;;;0.30;0.30;;;7.30;96.30;5.90;102649.00;;;;31412998;28;20053;-73
2021/12/20 01:43:42;;;;;;;0.20;0.20;;;7.10;95.80;6.00;102653.00;;;;31404098;28;20036;-73
2021/12/20 02:15:59;;;;;;;0.20;0.20;;;7.10;95.40;5.80;102641.00;;;;31406032;28;20102;-72
2021/12/20 02:46:46;;;;;;;0.20;0.20;;;9.00;97.50;5.60;102608.00;;;;31396923;28;20412;-71
2021/12/20 03:02:07;;;;;;;0.10;0.10;;;6.80;95.50;5.60;102617.00;;;;31391010;28;20393;-73
2021/12/20 03:17:10;;;;;;;0.20;0.20;;;6.80;95.70;5.60;102622.00;;;;31392051;28;20040;-74
2021/12/20 03:32:13;;;;;;;0.10;0.10;;;6.20;94.90;5.60;102635.00;;;;31392156;28;20060;-72
2021/12/20 03:47:16;;;;;;;0.20;0.20;;;6.80;95.20;5.50;102618.00;;;;31391433;28;20733;-72
2021/12/20 04:02:19;;;;;;;0.20;0.20;;;6.70;95.30;5.40;102609.00;;;;31394567;28;20486;-73
2021/12/20 04:17:21;;;;;;;0.20;0.20;;;6.60;95.30;5.30;102625.00;;;;31390874;28;20076;-73
2021/12/20 04:32:24;;;;;;;0.20;0.20;;;6.60;95.80;5.30;102624.00;;;;31387830;28;20048;-73
2021/12/20 04:47:26;;;;;;;0.20;0.20;;;6.50;95.60;5.30;102634.00;;;;31426995;28;20127;-73
2021/12/20 05:02:28;;;;;;;0.20;0.20;;;6.50;94.00;5.30;102641.00;;;;31414129;28;20610;-72
2021/12/20 05:17:29;;;;;;;0.20;0.20;;;6.80;94.50;5.30;102643.00;;;;31427898;28;20569;-72
2021/12/20 05:32:31;;;;;;;0.20;0.20;;;6.50;93.50;5.30;102632.00;;;;31384240;28;20048;-72
2021/12/20 05:47:33;;;;;;;0.20;0.20;;;6.50;94.30;5.20;102645.00;;;;31389390;28;20515;-72
2021/12/20 06:02:36;;;;;;;0.20;0.20;;;6.40;94.50;5.10;102642.00;;;;31385968;28;20075;-74
2021/12/20 06:17:37;;;;;;;0.20;0.20;;;6.00;94.70;5.10;102649.00;;;;31395613;28;20048;-72
2021/12/20 06:32:41;;;;;;;0.20;0.20;;;7.30;94.40;5.10;102650.00;;;;31411067;28;20048;-75
2021/12/20 06:47:43;;;;;;;0.20;0.20;;;6.30;93.10;5.00;102665.00;;;;31401334;28;20517;-74
2021/12/20 07:02:45;;;;;;;0.20;0.20;;;6.20;93.70;5.00;102676.00;;;;31400328;28;20056;-74
2021/12/20 07:17:46;;;;;;;0.17;0.17;;;6.50;94.40;4.90;102682.00;;;;31379359;28;20048;-74
2021/12/20 07:32:49;;;;;;;0.20;0.20;;;6.20;94.30;4.90;102686.00;;;;31396666;28;20241;-74
2021/12/20 07:47:51;;;;;;;0.22;0.22;;;6.20;93.20;4.90;102683.00;;;;31359785;28;20044;-74
2021/12/20 08:02:56;;;;;;;0.28;0.28;;;6.10;93.50;4.90;102694.00;;;;31433320;28;20037;-74
2021/12/20 08:17:58;;;;;;;0.20;0.20;;;6.10;94.00;5.00;102699.00;;;;31409910;28;20509;-73
2021/12/20 08:33:01;;;;;;;0.20;0.20;;;7.50;94.50;5.20;102715.00;;;;31447251;28;20040;-76
2021/12/20 08:48:03;;;;;;;0.20;0.20;;;6.40;92.40;5.30;102723.00;;;;31441901;28;20040;-74
2021/12/20 09:03:05;;;;;;;0.20;0.20;;;6.50;91.80;5.40;102721.00;;;;31448604;28;20098;-74
2021/12/20 09:18:11;;;;;;;0.20;0.20;;;6.60;91.10;5.50;102735.00;;;;31419007;28;20113;-74
2021/12/20 09:33:14;;;;;;;0.20;0.20;;;7.10;90.90;5.70;102739.00;;;;31434806;28;20044;-75
2021/12/20 09:48:15;;;;;;;0.20;0.20;;;6.90;91.10;5.70;102757.00;;;;31410151;28;20036;-75
2021/12/20 10:03:21;;;;;;;0.20;0.20;;;7.00;91.60;5.80;102753.00;;;;31432373;28;20442;-75
2021/12/20 10:18:24;;;;;;;0.20;0.20;;;7.00;91.90;6.00;102760.00;;;;31431285;28;20040;-75
2021/12/20 10:33:27;;;;;;;0.10;0.10;;;6.90;91.10;6.00;102759.00;;;;31415470;28;20055;-75
2021/12/20 10:48:33;;;;;;;0.20;0.20;;;7.20;91.10;6.20;102762.00;;;;31420703;28;20048;-74
2021/12/20 11:03:40;;;;;;;0.30;0.30;;;7.50;90.90;6.50;102759.00;;;;31421089;28;20041;-76
2021/12/20 11:18:41;;;;;;;0.30;0.30;;;7.60;90.50;6.70;102749.00;;;;31423817;28;20054;-76
2021/12/20 11:33:48;;;;;;;0.10;0.10;;;7.80;90.20;6.70;102737.00;;;;31387398;28;20063;-75
2021/12/20 11:48:52;;;;;;;0.20;0.20;;;7.90;89.00;6.60;102744.00;;;;31427602;28;20679;-74
2021/12/20 12:03:58;;;;;;;0.20;0.20;;;7.70;87.80;6.40;102746.00;;;;31428889;28;20472;-75
2021/12/20 12:19:02;;;;;;;0.40;0.40;;;7.60;89.30;6.30;102737.00;;;;31440980;28;20660;-74
2021/12/20 12:34:13;;;;;;;0.20;0.20;;;7.40;90.20;6.20;102733.00;;;;31427844;28;20605;-74
2021/12/20 12:49:29;;;;;;;0.20;0.20;;;7.40;90.10;6.00;102727.00;;;;31428742;28;20056;-74
2021/12/20 13:04:53;;;;;;;0.30;0.30;;;8.10;90.30;5.90;102720.00;;;;31435205;28;20624;-74
2021/12/20 13:20:35;;;;;;;0.20;0.20;;;7.10;90.50;5.90;102734.00;;;;31432949;28;20051;-75
2021/12/20 13:35:38;;;;;;;0.20;0.20;;;5.30;93.00;5.90;102721.00;;;;31309803;28;20052;-74
2021/12/20 13:50:40;;;;;;;0.20;0.20;;;7.20;90.50;6.00;102722.00;;;;31382788;28;20053;-74
2021/12/20 14:05:41;;;;;;;0.20;0.20;;;7.30;89.90;6.10;102717.00;;;;31428868;28;20048;-74
2021/12/20 14:21:01;;;;;;;0.25;0.25;;;7.30;89.70;6.10;102717.00;;;;31391995;22;20053;-78
2021/12/20 14:36:14;;;;;;;0.40;0.40;;;7.10;89.60;5.80;102712.00;;;;31226999;28;20398;-76
2021/12/20 14:51:20;;;;;;;0.20;0.20;;;7.00;90.20;5.50;102717.00;;;;31156612;28;20042;-77
2021/12/20 15:06:24;;;;;;;0.20;0.20;;;6.90;91.60;5.30;102710.00;;;;31127239;28;20124;-76
2021/12/20 15:21:27;;;;;;;0.25;0.25;;;6.40;90.50;4.90;102719.00;;;;31147319;28;20033;-77
2021/12/20 15:36:28;;;;;;;0.28;0.28;;;5.90;90.90;4.50;102700.00;;;;31193146;28;20064;-76
2021/12/20 15:51:30;;;;;;;0.30;0.30;;;5.70;91.50;4.10;102711.00;;;;31172936;28;20160;-77
2021/12/20 16:06:31;;;;;;;0.20;0.20;;;5.40;91.30;3.80;102697.00;;;;31177381;28;20050;-77
2021/12/20 16:21:33;;;;;;;0.20;0.20;;;5.10;91.50;3.60;102697.00;;;;31153317;28;20045;-77
2021/12/20 16:36:35;;;;;;;0.30;0.30;;;4.80;91.50;3.30;102697.00;;;;31163142;28;20103;-77
2021/12/20 16:51:36;;;;;;;0.17;0.17;;;4.50;91.90;3.00;102695.00;;;;31182093;28;21009;-77
2021/12/20 17:06:38;;;;;;;0.20;0.20;;;4.40;91.50;2.90;102698.00;;;;31162445;28;20521;-75
2021/12/20 17:21:39;;;;;;;0.30;0.30;;;4.30;91.70;2.70;102700.00;;;;31183067;28;20094;-75
2021/12/20 17:36:41;;;;;;;0.20;0.20;;;4.00;91.60;2.50;102709.00;;;;31162405;28;20132;-75
2021/12/20 17:51:48;;;;;;;0.28;0.28;;;4.00;92.00;2.30;102716.00;;;;31174839;28;20069;-75
2021/12/20 18:06:50;;;;;;;0.30;0.30;;;3.80;91.30;2.30;102708.00;;;;31166486;28;20406;-76
2021/12/20 18:21:51;;;;;;;0.30;0.30;;;3.80;90.90;2.30;102716.00;;;;31188747;28;20050;-76
2021/12/20 18:36:52;;;;;;;0.20;0.20;;;3.70;90.70;2.20;102711.00;;;;31191430;28;20037;-76
2021/12/20 18:51:54;;;;;;;0.30;0.30;;;3.10;91.00;2.00;102712.00;;;;31151500;28;20041;-76
2021/12/20 19:06:56;;;;;;;0.30;0.30;;;3.40;90.80;1.90;102715.00;;;;31168594;28;20515;-75
2021/12/20 19:21:59;;;;;;;0.30;0.30;;;3.40;91.40;1.80;102702.00;;;;31153147;28;20054;-75
2021/12/20 19:37:02;;;;;;;0.25;0.25;;;3.20;90.80;1.70;102698.00;;;;31158684;28;20206;-75
2021/12/20 19:52:04;;;;;;;0.20;0.20;;;3.20;91.20;1.50;102695.00;;;;31164245;28;20095;-74
2021/12/20 20:07:11;;;;;;;0.55;0.55;;;3.00;91.10;1.40;102690.00;;;;31164245;28;20125;-75
2021/12/20 20:22:12;;;;;;;0.80;0.80;;;2.90;91.10;1.30;102692.00;;;;31166262;28;20133;-74
2021/12/20 20:37:14;;;;;;;0.40;0.40;;;2.80;90.80;1.40;102694.00;;;;31170768;28;20127;-74
2021/12/20 20:52:15;;;;;;;0.30;0.30;;;2.80;91.30;1.30;102699.00;;;;31180512;28;20124;-74
2021/12/20 21:07:17;;;;;;;0.28;0.28;;;2.90;90.90;1.30;102702.00;;;;31167399;28;20628;-74
2021/12/20 21:22:18;;;;;;;0.30;0.30;;;2.80;90.70;1.20;102693.00;;;;31178508;28;20076;-74
2021/12/20 21:37:19;;;;;;;0.20;0.20;;;2.70;90.50;1.20;102695.00;;;;31182199;28;20053;-74
2021/12/20 21:52:20;;;;;;;0.30;0.30;;;2.60;90.40;1.20;102690.00;;;;31149242;28;20046;-75
2021/12/20 22:07:21;;;;;;;0.30;0.30;;;2.60;90.80;1.00;102697.00;;;;31169260;28;20049;-74
2021/12/20 22:22:22;;;;;;;0.30;0.30;;;3.60;91.20;0.90;102679.00;;;;31191132;28;20038;-75
2021/12/20 22:37:24;;;;;;;0.30;0.30;;;2.40;90.20;0.90;102675.00;;;;31172494;28;20111;-75
2021/12/20 22:52:26;;;;;;;0.35;0.35;;;2.40;90.70;0.80;102685.00;;;;31133498;28;20046;-75
2021/12/20 23:07:27;;;;;;;0.40;0.40;;;2.30;90.90;0.70;102674.00;;;;31165836;28;20057;-76
2021/12/20 23:22:30;;;;;;;0.30;0.30;;;2.20;90.70;0.50;102670.00;;;;31169727;28;20046;-76
2021/12/20 23:37:35;;;;;;;0.68;0.68;;;2.00;90.80;0.40;102675.00;;;;31188991;28;20046;-76
2021/12/20 23:52:38;;;;;;;0.30;0.30;;;1.90;91.20;0.20;102655.00;;;;31205704;28;20603;-76
